Time;durP1;ratioP1;P1;durP2;ratioP2;P2;SDS_P1;SDS_P2;PMS_P1;PMS_P2;Temp;Humidity;BMP_temperature;BMP_pressure;BME280_temperature;BME280_humidity;BME280_pressure;Samples;Min_cycle;Max_cycle;Signal;HPM_P1;HPM_P2
2021/09/19 00:01:11;;;;;;;5.88;2.28;;;20.10;81.10;;;;;;5083850;28;20024;-69
2021/09/19 00:03:39;;;;;;;4.05;2.33;;;20.10;81.10;;;;;;5075061;28;20021;-69
2021/09/19 00:06:04;;;;;;;3.83;2.03;;;20.10;81.20;;;;;;5087376;28;20057;-69
2021/09/19 00:08:30;;;;;;;3.35;2.05;;;20.00;81.10;;;;;;5093140;28;20076;-69
2021/09/19 00:10:57;;;;;;;4.20;2.28;;;20.00;81.00;;;;;;5083460;28;20040;-69
2021/09/19 00:13:23;;;;;;;4.75;2.35;;;20.00;81.00;;;;;;5096446;28;20399;-69
2021/09/19 00:15:49;;;;;;;6.38;2.22;;;20.00;81.10;;;;;;5075162;28;20040;-69
2021/09/19 00:18:17;;;;;;;3.47;2.15;;;20.00;81.10;;;;;;5076019;28;20031;-70
2021/09/19 00:20:43;;;;;;;4.30;2.33;;;20.00;81.10;;;;;;5091617;28;20125;-70
2021/09/19 00:23:09;;;;;;;7.05;2.30;;;20.00;81.10;;;;;;5087198;28;20487;-69
2021/09/19 00:25:35;;;;;;;4.65;2.22;;;20.00;81.20;;;;;;5080079;28;20380;-69
2021/09/19 00:28:02;;;;;;;4.03;2.22;;;20.00;81.20;;;;;;5084775;28;20036;-69
2021/09/19 00:30:28;;;;;;;8.75;3.13;;;19.90;81.20;;;;;;5098085;28;20031;-69
2021/09/19 00:32:54;;;;;;;4.10;2.50;;;19.90;81.30;;;;;;5094070;28;20062;-69
2021/09/19 00:35:20;;;;;;;4.65;2.63;;;19.90;81.30;;;;;;5087493;28;20020;-69
2021/09/19 00:37:45;;;;;;;5.13;2.58;;;20.00;81.30;;;;;;5091211;28;20048;-69
2021/09/19 00:40:12;;;;;;;10.25;3.08;;;20.00;81.40;;;;;;5089355;28;20032;-70
2021/09/19 00:42:39;;;;;;;4.25;2.65;;;19.90;81.40;;;;;;5080757;28;20031;-69
2021/09/19 00:45:08;;;;;;;5.03;3.08;;;19.90;81.40;;;;;;5088470;28;20019;-69
2021/09/19 00:47:34;;;;;;;8.68;3.58;;;19.90;81.50;;;;;;5078316;28;20437;-69
2021/09/19 00:50:00;;;;;;;6.32;3.20;;;19.90;81.70;;;;;;5093277;28;20032;-69
2021/09/19 00:52:28;;;;;;;6.50;3.20;;;19.90;81.60;;;;;;5088386;28;20486;-69
2021/09/19 00:54:57;;;;;;;6.75;3.10;;;19.90;81.50;;;;;;5081317;28;20033;-69
2021/09/19 00:57:25;;;;;;;7.63;3.15;;;19.90;81.60;;;;;;5087929;28;20036;-69
2021/09/19 00:59:51;;;;;;;8.00;3.65;;;19.90;81.50;;;;;;5085180;28;20030;-69
2021/09/19 01:02:17;;;;;;;10.98;3.35;;;19.80;81.50;;;;;;5083660;28;20475;-69
2021/09/19 01:04:43;;;;;;;5.32;2.85;;;19.80;81.50;;;;;;5086119;28;20060;-69
2021/09/19 01:07:09;;;;;;;9.40;3.20;;;19.80;81.50;;;;;;5080290;28;20036;-69
2021/09/19 01:09:36;;;;;;;5.50;3.10;;;19.90;81.40;;;;;;5091241;28;20379;-69
2021/09/19 01:12:02;;;;;;;5.45;2.72;;;19.90;81.40;;;;;;5079612;28;20058;-69
2021/09/19 01:14:30;;;;;;;9.27;3.15;;;19.90;81.60;;;;;;5085424;28;20459;-69
2021/09/19 01:16:59;;;;;;;6.70;3.15;;;19.80;81.40;;;;;;5077708;28;20074;-69
2021/09/19 01:19:25;;;;;;;5.65;2.80;;;19.80;81.30;;;;;;5077799;28;20029;-69
2021/09/19 01:21:52;;;;;;;7.57;3.00;;;19.80;81.50;;;;;;5077333;28;20035;-69
2021/09/19 01:24:18;;;;;;;8.07;3.45;;;19.80;81.20;;;;;;5090143;28;20028;-69
2021/09/19 01:26:44;;;;;;;5.70;3.00;;;19.70;81.00;;;;;;5085388;28;20040;-69
2021/09/19 01:29:10;;;;;;;6.28;2.92;;;19.80;80.90;;;;;;5090474;28;20031;-69
2021/09/19 01:31:36;;;;;;;6.85;3.17;;;19.80;80.90;;;;;;5095452;28;20435;-69
2021/09/19 01:34:02;;;;;;;3.10;2.30;;;19.80;81.00;;;;;;5079600;28;20112;-69
2021/09/19 01:36:36;;;;;;;5.47;2.70;;;19.80;81.40;;;;;;5080262;28;20050;-70
2021/09/19 01:39:04;;;;;;;6.57;3.30;;;19.70;80.90;;;;;;5084170;28;20032;-69
2021/09/19 01:41:29;;;;;;;4.43;2.42;;;19.70;80.90;;;;;;5093070;28;20032;-69
2021/09/19 01:43:55;;;;;;;5.60;2.50;;;19.70;80.90;;;;;;5088587;28;20031;-69
2021/09/19 01:46:21;;;;;;;7.35;2.78;;;19.70;80.60;;;;;;5091211;28;20521;-69
2021/09/19 01:48:47;;;;;;;4.88;2.72;;;19.70;80.40;;;;;;5090505;28;20031;-69
2021/09/19 01:51:12;;;;;;;5.38;2.63;;;19.60;79.90;;;;;;5109956;28;20118;-69
2021/09/19 01:53:39;;;;;;;6.38;2.35;;;19.60;79.60;;;;;;5089033;27;20033;-69
2021/09/19 01:56:06;;;;;;;5.53;2.65;;;19.60;80.00;;;;;;5088627;28;20341;-69
2021/09/19 01:58:43;;;;;;;4.43;2.50;;;19.60;79.60;;;;;;5096972;28;20613;-69
2021/09/19 02:01:09;;;;;;;4.55;2.40;;;19.60;79.90;;;;;;5094119;28;20024;-69
2021/09/19 02:03:37;;;;;;;6.47;2.83;;;19.60;79.60;;;;;;5079604;28;20032;-69
2021/09/19 02:06:03;;;;;;;5.85;2.70;;;19.60;79.40;;;;;;5093061;28;20043;-69
2021/09/19 02:08:29;;;;;;;5.82;2.80;;;19.50;79.20;;;;;;5087930;28;20040;-69
2021/09/19 02:10:55;;;;;;;5.63;2.88;;;19.50;79.40;;;;;;5092140;28;20017;-69
2021/09/19 02:13:20;;;;;;;7.20;2.75;;;19.50;79.60;;;;;;5088473;28;20452;-69
2021/09/19 02:15:46;;;;;;;5.65;2.40;;;19.50;80.10;;;;;;5087627;28;20102;-69
2021/09/19 02:18:12;;;;;;;8.10;2.60;;;19.50;79.50;;;;;;5096443;28;20028;-69
2021/09/19 02:20:37;;;;;;;6.72;2.60;;;19.50;79.40;;;;;;5084057;28;20372;-69
2021/09/19 02:23:03;;;;;;;5.97;2.30;;;19.50;79.40;;;;;;5093074;28;20194;-69
2021/09/19 02:25:28;;;;;;;6.93;2.40;;;19.40;79.30;;;;;;5090315;28;20052;-69
2021/09/19 02:27:54;;;;;;;7.20;2.65;;;19.50;78.90;;;;;;5092303;28;20087;-69
2021/09/19 02:30:20;;;;;;;5.32;2.28;;;19.40;78.60;;;;;;5090165;28;20024;-69
2021/09/19 02:32:45;;;;;;;4.38;2.50;;;19.40;78.50;;;;;;5089096;28;20024;-70
2021/09/19 02:35:12;;;;;;;7.20;2.45;;;19.40;78.80;;;;;;5093566;28;20120;-69
2021/09/19 02:37:39;;;;;;;4.07;2.63;;;19.40;78.40;;;;;;5081019;28;20123;-69
2021/09/19 02:40:06;;;;;;;4.70;2.35;;;19.40;78.80;;;;;;5081377;28;20024;-69
2021/09/19 02:42:32;;;;;;;7.55;2.70;;;19.40;78.30;;;;;;5084622;28;20036;-69
2021/09/19 02:44:58;;;;;;;5.22;2.88;;;19.40;77.90;;;;;;5081049;28;20023;-69
2021/09/19 02:47:24;;;;;;;6.60;2.35;;;19.30;77.20;;;;;;5088163;28;20082;-68
2021/09/19 02:49:49;;;;;;;6.30;2.60;;;19.30;77.80;;;;;;5076939;28;20040;-69
2021/09/19 02:52:15;;;;;;;4.15;2.25;;;19.30;78.10;;;;;;5090674;28;20024;-69
2021/09/19 02:54:41;;;;;;;5.45;2.30;;;19.30;77.60;;;;;;5092232;28;20131;-69
2021/09/19 02:57:06;;;;;;;7.80;2.70;;;19.30;76.80;;;;;;5088564;28;20059;-69
2021/09/19 02:59:32;;;;;;;4.50;2.42;;;19.30;76.80;;;;;;5083152;28;20755;-69
2021/09/19 03:01:57;;;;;;;3.75;2.15;;;19.20;76.50;;;;;;5089083;28;20039;-69
2021/09/19 03:04:23;;;;;;;5.78;2.13;;;19.20;76.30;;;;;;5091845;28;20020;-69
2021/09/19 03:06:49;;;;;;;7.85;2.58;;;19.20;76.30;;;;;;5081837;28;20033;-69
2021/09/19 03:09:14;;;;;;;8.30;2.63;;;19.20;76.90;;;;;;5089447;28;20081;-69
2021/09/19 03:11:40;;;;;;;5.13;2.75;;;19.10;77.80;;;;;;5094581;28;20394;-69
2021/09/19 03:14:05;;;;;;;8.98;2.90;;;19.10;77.50;;;;;;5084295;28;20039;-69
2021/09/19 03:16:31;;;;;;;4.78;2.33;;;19.10;77.90;;;;;;5093783;28;20406;-69
2021/09/19 03:18:57;;;;;;;7.68;2.85;;;19.10;77.10;;;;;;5091829;28;20103;-69
2021/09/19 03:21:22;;;;;;;5.00;2.63;;;19.10;76.90;;;;;;5088562;28;20115;-69
2021/09/19 03:23:49;;;;;;;6.38;2.85;;;19.10;76.80;;;;;;5100995;28;20031;-69
2021/09/19 03:26:15;;;;;;;7.63;2.80;;;19.00;77.60;;;;;;5084964;28;20024;-69
2021/09/19 03:28:40;;;;;;;4.57;2.25;;;19.00;78.00;;;;;;5081951;28;20050;-69
2021/09/19 03:31:06;;;;;;;4.50;2.60;;;19.00;78.80;;;;;;5083234;28;20025;-69
2021/09/19 03:33:31;;;;;;;3.67;2.13;;;19.00;78.60;;;;;;5086300;28;20431;-69
2021/09/19 03:35:57;;;;;;;5.75;2.75;;;19.00;78.40;;;;;;5084820;28;20055;-69
2021/09/19 03:38:23;;;;;;;6.70;2.42;;;18.90;77.40;;;;;;5089105;28;20035;-69
2021/09/19 03:40:48;;;;;;;6.70;2.45;;;19.00;78.00;;;;;;5084379;28;20032;-69
2021/09/19 03:43:14;;;;;;;6.43;2.70;;;18.90;77.40;;;;;;5088755;28;20081;-69
2021/09/19 03:45:40;;;;;;;4.55;1.83;;;18.90;76.90;;;;;;5088885;28;20089;-69
2021/09/19 03:48:07;;;;;;;4.38;2.30;;;18.90;77.90;;;;;;5087470;28;20131;-69
2021/09/19 03:50:33;;;;;;;5.45;2.50;;;18.90;79.70;;;;;;5089925;28;20072;-70
2021/09/19 03:52:59;;;;;;;7.38;2.45;;;18.90;78.80;;;;;;5083876;28;20028;-69
2021/09/19 03:55:25;;;;;;;4.22;2.10;;;18.90;78.40;;;;;;5081346;28;20104;-69
2021/09/19 03:57:51;;;;;;;8.23;2.38;;;18.80;79.40;;;;;;5092928;28;20044;-69
2021/09/19 04:00:17;;;;;;;5.63;2.38;;;18.80;78.30;;;;;;5076645;28;20044;-69
2021/09/19 04:02:42;;;;;;;6.63;2.97;;;18.80;79.20;;;;;;5090763;28;20091;-69
2021/09/19 04:05:10;;;;;;;5.00;2.72;;;18.80;77.70;;;;;;5091951;28;20170;-69
2021/09/19 04:07:36;;;;;;;4.57;2.70;;;18.80;78.90;;;;;;5093213;28;20028;-69
2021/09/19 04:10:04;;;;;;;5.32;2.70;;;18.80;77.50;;;;;;5082225;28;20032;-69
2021/09/19 04:12:30;;;;;;;5.97;2.40;;;18.80;77.60;;;;;;5086674;28;20360;-69
2021/09/19 04:14:55;;;;;;;8.27;2.53;;;18.70;77.90;;;;;;5084844;28;20038;-69
2021/09/19 04:17:21;;;;;;;6.05;2.40;;;18.70;77.60;;;;;;5078378;28;20023;-69
2021/09/19 04:19:46;;;;;;;5.25;2.55;;;18.70;78.60;;;;;;5084235;28;20069;-69
2021/09/19 04:22:12;;;;;;;8.07;2.72;;;18.70;78.50;;;;;;5099765;28;20482;-69
2021/09/19 04:24:38;;;;;;;5.15;2.47;;;18.70;78.00;;;;;;5074995;28;20016;-69
2021/09/19 04:27:04;;;;;;;5.65;2.30;;;18.70;78.70;;;;;;5081509;28;20036;-69
2021/09/19 04:29:31;;;;;;;3.90;2.40;;;18.70;77.70;;;;;;5077938;28;20074;-70
2021/09/19 04:31:57;;;;;;;6.03;2.80;;;18.70;77.70;;;;;;5083974;28;20066;-69
2021/09/19 04:34:22;;;;;;;7.97;2.60;;;18.70;77.10;;;;;;5077576;28;20029;-69
2021/09/19 04:36:48;;;;;;;4.75;2.38;;;18.60;76.60;;;;;;5090545;28;20075;-69
2021/09/19 04:39:14;;;;;;;5.22;2.63;;;18.60;78.70;;;;;;5089082;28;20028;-69
2021/09/19 04:41:39;;;;;;;5.40;2.38;;;18.60;78.50;;;;;;5086896;28;20020;-69
2021/09/19 04:44:05;;;;;;;6.97;2.72;;;18.60;78.50;;;;;;5084088;28;20054;-69
2021/09/19 04:46:30;;;;;;;9.00;2.80;;;18.60;78.00;;;;;;5087269;28;20032;-69
2021/09/19 04:48:56;;;;;;;6.50;2.65;;;18.50;77.20;;;;;;5085008;28;20166;-69
2021/09/19 04:51:23;;;;;;;5.80;3.00;;;18.50;77.00;;;;;;5090931;28;20399;-69
2021/09/19 04:53:48;;;;;;;6.25;2.88;;;18.50;77.70;;;;;;5099347;28;20035;-70
2021/09/19 04:56:14;;;;;;;5.10;2.30;;;18.50;78.00;;;;;;5089243;28;20028;-69
2021/09/19 04:58:40;;;;;;;9.60;2.88;;;18.50;77.40;;;;;;5081867;28;20150;-69
2021/09/19 05:01:06;;;;;;;7.47;2.90;;;18.50;77.30;;;;;;5084371;28;20466;-69
2021/09/19 05:03:32;;;;;;;4.45;2.30;;;18.50;77.80;;;;;;5089073;28;20043;-69
2021/09/19 05:05:57;;;;;;;4.20;2.30;;;18.40;78.30;;;;;;5087612;28;20027;-69
2021/09/19 05:08:23;;;;;;;7.57;3.20;;;18.50;78.50;;;;;;5081704;28;20498;-69
2021/09/19 05:10:49;;;;;;;5.22;2.83;;;18.40;78.10;;;;;;5089208;28;20107;-69
2021/09/19 05:13:15;;;;;;;5.22;2.78;;;18.40;78.60;;;;;;5084731;28;20475;-69
2021/09/19 05:15:40;;;;;;;5.03;3.10;;;18.40;78.10;;;;;;5077692;28;20585;-69
2021/09/19 05:18:06;;;;;;;9.48;3.30;;;18.40;78.30;;;;;;5078687;28;20024;-69
2021/09/19 05:20:32;;;;;;;6.22;2.95;;;18.40;77.70;;;;;;5090347;28;20024;-69
2021/09/19 05:22:57;;;;;;;9.93;3.58;;;18.30;77.90;;;;;;5081625;28;20063;-69
2021/09/19 05:25:23;;;;;;;5.72;3.15;;;18.30;77.60;;;;;;5083062;28;20062;-69
2021/09/19 05:27:50;;;;;;;6.68;2.88;;;18.30;77.60;;;;;;5086359;28;20060;-69
2021/09/19 05:30:17;;;;;;;9.88;2.78;;;18.30;77.00;;;;;;5091289;28;20024;-70
2021/09/19 05:32:42;;;;;;;4.88;2.65;;;18.30;77.20;;;;;;5091577;28;20417;-69
2021/09/19 05:35:09;;;;;;;5.25;3.05;;;18.30;76.80;;;;;;5078790;28;20029;-69
2021/09/19 05:37:35;;;;;;;10.20;3.30;;;18.30;76.70;;;;;;5091691;28;20503;-69
2021/09/19 05:40:03;;;;;;;10.65;3.72;;;18.30;76.70;;;;;;5089923;28;20040;-69
2021/09/19 05:42:29;;;;;;;5.10;2.22;;;18.30;76.90;;;;;;5090596;28;20081;-69
2021/09/19 05:44:54;;;;;;;5.47;2.80;;;18.30;78.00;;;;;;5090828;28;20036;-70
2021/09/19 05:47:20;;;;;;;6.85;3.00;;;18.30;77.90;;;;;;5072334;28;20044;-69
2021/09/19 05:49:46;;;;;;;6.60;3.13;;;18.20;77.40;;;;;;5072637;28;20476;-69
2021/09/19 05:52:11;;;;;;;7.40;2.58;;;18.20;77.70;;;;;;5088626;28;20482;-69
2021/09/19 05:54:37;;;;;;;9.05;3.63;;;18.20;78.10;;;;;;5090123;28;20020;-69
2021/09/19 05:57:03;;;;;;;7.05;2.90;;;18.20;78.00;;;;;;5087656;28;20043;-69
2021/09/19 05:59:28;;;;;;;6.25;3.03;;;18.20;77.50;;;;;;5091963;28;20027;-69
2021/09/19 06:01:54;;;;;;;7.40;3.65;;;18.20;78.00;;;;;;5089751;28;20711;-69
2021/09/19 06:04:19;;;;;;;6.90;3.20;;;18.10;77.80;;;;;;5086989;28;20035;-69
2021/09/19 06:06:45;;;;;;;3.00;1.83;;;18.20;77.70;;;;;;5088670;28;20368;-69
2021/09/19 06:09:11;;;;;;;7.78;3.05;;;18.10;78.20;;;;;;5083923;28;20030;-69
2021/09/19 06:11:36;;;;;;;6.78;3.13;;;18.20;78.10;;;;;;5072591;28;20368;-69
2021/09/19 06:14:02;;;;;;;7.05;3.17;;;18.20;78.10;;;;;;5080995;28;20064;-69
2021/09/19 06:16:28;;;;;;;6.13;3.40;;;18.20;78.00;;;;;;5085636;28;20021;-69
2021/09/19 06:18:53;;;;;;;6.70;3.00;;;18.10;77.70;;;;;;5091805;28;20032;-70
2021/09/19 06:21:19;;;;;;;4.95;3.00;;;18.10;78.00;;;;;;5085871;28;20101;-69
2021/09/19 06:23:44;;;;;;;10.50;2.97;;;18.10;78.10;;;;;;5088826;28;20031;-69
2021/09/19 06:26:10;;;;;;;7.22;3.42;;;18.10;77.90;;;;;;5084428;28;20046;-69
2021/09/19 06:28:36;;;;;;;7.03;3.10;;;18.10;78.40;;;;;;5086261;28;20075;-70
2021/09/19 06:31:01;;;;;;;5.40;2.60;;;18.00;79.30;;;;;;5089071;28;20031;-70
2021/09/19 06:33:28;;;;;;;9.32;3.47;;;18.10;80.30;;;;;;5093347;28;20078;-69
2021/09/19 06:35:53;;;;;;;6.95;3.22;;;18.00;79.90;;;;;;5083168;28;20489;-68
2021/09/19 06:38:19;;;;;;;8.52;4.07;;;18.00;80.00;;;;;;5094517;28;20032;-69
2021/09/19 06:40:45;;;;;;;8.30;3.85;;;18.00;79.40;;;;;;5092752;28;20024;-69
2021/09/19 06:43:11;;;;;;;9.55;3.90;;;18.00;80.60;;;;;;5090417;28;20024;-69
2021/09/19 06:45:36;;;;;;;9.02;3.50;;;18.00;80.00;;;;;;5080773;28;20370;-69
2021/09/19 06:48:02;;;;;;;6.97;3.40;;;18.00;79.50;;;;;;5091035;28;20037;-69
2021/09/19 06:50:28;;;;;;;8.15;3.65;;;18.00;79.80;;;;;;5085850;28;20052;-69
2021/09/19 06:52:53;;;;;;;13.63;4.10;;;18.00;79.90;;;;;;5098001;28;20059;-69
2021/09/19 06:55:19;;;;;;;6.85;2.97;;;18.00;79.80;;;;;;5080801;28;20120;-69
2021/09/19 06:57:46;;;;;;;8.10;3.92;;;18.00;79.90;;;;;;5083974;28;20036;-70
2021/09/19 07:00:13;;;;;;;6.63;3.30;;;18.00;79.50;;;;;;5089804;28;20082;-71
2021/09/19 07:02:38;;;;;;;6.30;1.83;;;18.00;79.50;;;;;;5086416;28;20031;-71
2021/09/19 07:05:04;;;;;;;9.40;3.17;;;18.00;79.90;;;;;;5077587;28;20032;-71
2021/09/19 07:07:30;;;;;;;7.53;3.45;;;17.90;80.10;;;;;;5078391;28;20042;-71
2021/09/19 07:09:56;;;;;;;11.98;3.80;;;18.00;79.90;;;;;;5076067;28;20103;-71
2021/09/19 07:12:21;;;;;;;7.68;3.83;;;17.90;79.80;;;;;;5076670;28;20038;-71
2021/09/19 07:14:47;;;;;;;7.47;2.72;;;18.00;80.20;;;;;;5078400;28;20020;-70
2021/09/19 07:17:13;;;;;;;3.90;2.60;;;17.90;81.10;;;;;;5074395;28;20384;-70
2021/09/19 07:19:38;;;;;;;7.00;2.95;;;18.00;82.10;;;;;;5076642;28;20145;-72
2021/09/19 07:22:04;;;;;;;11.60;4.15;;;18.00;82.00;;;;;;5076785;28;20050;-74
2021/09/19 07:24:30;;;;;;;8.52;3.70;;;17.90;81.00;;;;;;5075811;28;20059;-76
2021/09/19 07:26:55;;;;;;;5.30;3.38;;;18.00;81.60;;;;;;5078593;28;20032;-78
2021/09/19 07:29:22;;;;;;;5.22;2.72;;;18.00;82.10;;;;;;5080357;28;20016;-76
2021/09/19 07:31:51;;;;;;;5.78;3.00;;;18.00;82.20;;;;;;5081751;28;20040;-74
2021/09/19 07:34:17;;;;;;;4.47;2.40;;;18.00;83.20;;;;;;5088664;28;20024;-75
2021/09/19 07:36:44;;;;;;;10.52;3.85;;;18.00;83.40;;;;;;5087825;28;20063;-75
2021/09/19 07:39:10;;;;;;;8.73;3.22;;;18.10;84.00;;;;;;5091475;28;20061;-71
2021/09/19 07:41:35;;;;;;;5.30;2.97;;;18.00;83.90;;;;;;5087643;28;20107;-75
2021/09/19 07:44:01;;;;;;;4.95;2.60;;;18.10;84.00;;;;;;5088009;28;20101;-70
2021/09/19 07:46:27;;;;;;;4.50;1.98;;;18.10;84.30;;;;;;5092210;28;20170;-70
2021/09/19 07:48:53;;;;;;;9.90;3.30;;;18.00;84.60;;;;;;5089486;28;20040;-69
2021/09/19 07:51:20;;;;;;;5.53;2.72;;;18.10;84.20;;;;;;5085816;28;20028;-70
2021/09/19 07:53:46;;;;;;;5.18;1.83;;;18.10;84.30;;;;;;5090128;28;20117;-70
2021/09/19 07:56:12;;;;;;;4.80;2.92;;;18.00;84.50;;;;;;5090687;28;20024;-70
2021/09/19 07:58:38;;;;;;;14.38;3.50;;;18.10;84.40;;;;;;5092087;28;20085;-71
2021/09/19 08:01:04;;;;;;;7.28;3.92;;;18.10;84.00;;;;;;5087614;28;20021;-70
2021/09/19 08:03:30;;;;;;;7.78;3.38;;;18.10;83.90;;;;;;5072855;28;20438;-71
2021/09/19 08:05:56;;;;;;;5.85;3.40;;;18.10;83.80;;;;;;5087914;28;20099;-71
2021/09/19 08:08:21;;;;;;;9.55;4.30;;;18.20;83.70;;;;;;5083580;28;20529;-71
2021/09/19 08:10:47;;;;;;;8.23;2.60;;;18.10;83.60;;;;;;5086443;28;20020;-71
2021/09/19 08:13:13;;;;;;;6.63;2.80;;;18.10;83.90;;;;;;5091761;28;20028;-70
2021/09/19 08:15:39;;;;;;;5.30;2.90;;;18.20;84.00;;;;;;5086081;28;20043;-70
2021/09/19 08:18:06;;;;;;;6.68;3.03;;;18.20;83.90;;;;;;5086712;28;20032;-71
2021/09/19 08:20:32;;;;;;;7.72;3.33;;;18.20;83.70;;;;;;5087980;28;20028;-70
2021/09/19 08:22:58;;;;;;;9.18;3.22;;;18.20;83.50;;;;;;5086604;28;20032;-70
2021/09/19 08:25:25;;;;;;;7.82;3.30;;;18.30;83.60;;;;;;5090497;28;20028;-70
2021/09/19 08:27:51;;;;;;;8.82;3.28;;;18.30;83.40;;;;;;5087478;28;20036;-70
2021/09/19 08:30:17;;;;;;;6.78;3.92;;;18.40;84.10;;;;;;5086227;28;20028;-70
2021/09/19 08:32:43;;;;;;;9.93;3.47;;;18.40;83.20;;;;;;5089869;28;20032;-70
2021/09/19 08:35:10;;;;;;;8.45;3.60;;;18.30;83.20;;;;;;5089157;28;20028;-71
2021/09/19 08:37:37;;;;;;;8.63;3.40;;;18.40;83.00;;;;;;5088134;28;20063;-70
2021/09/19 08:40:05;;;;;;;7.75;4.15;;;18.40;82.90;;;;;;5087496;28;20032;-70
2021/09/19 08:42:32;;;;;;;5.93;3.22;;;18.50;82.90;;;;;;5088269;28;20055;-70
2021/09/19 08:44:58;;;;;;;5.47;2.92;;;18.50;82.90;;;;;;5080027;28;20036;-70
2021/09/19 08:47:27;;;;;;;6.28;3.13;;;18.50;83.00;;;;;;5079952;28;20035;-70
2021/09/19 08:49:53;;;;;;;8.48;3.50;;;18.50;83.00;;;;;;5084152;28;20428;-74
2021/09/19 08:52:19;;;;;;;6.88;2.97;;;18.50;82.90;;;;;;5081714;28;20028;-71
2021/09/19 08:54:45;;;;;;;8.52;2.85;;;18.50;83.00;;;;;;5080190;28;20123;-74
2021/09/19 08:57:11;;;;;;;7.20;3.67;;;18.50;83.20;;;;;;5081613;28;20031;-78
2021/09/19 08:59:47;;;;;;;7.75;4.10;;;18.50;83.00;;;;;;5089209;28;20059;-71
2021/09/19 09:02:16;;;;;;;5.05;2.65;;;18.50;83.00;;;;;;5082848;28;20039;-75
2021/09/19 09:04:43;;;;;;;4.88;2.47;;;18.50;83.10;;;;;;5075844;28;20560;-75
2021/09/19 09:07:10;;;;;;;4.32;2.58;;;18.50;83.30;;;;;;5077882;28;20404;-75
2021/09/19 09:09:37;;;;;;;8.95;3.55;;;18.50;83.30;;;;;;5082666;28;20099;-75
2021/09/19 09:12:08;;;;;;;9.88;3.88;;;18.50;83.30;;;;;;5085479;28;20123;-76
2021/09/19 09:14:48;;;;;;;5.90;3.17;;;18.50;83.20;;;;;;5087772;28;20544;-76
2021/09/19 09:17:26;;;;;;;12.02;3.55;;;18.50;83.00;;;;;;5088650;28;20028;-76
2021/09/19 09:19:55;;;;;;;10.50;3.72;;;18.50;83.10;;;;;;5082218;28;20024;-76
2021/09/19 09:22:29;;;;;;;7.95;3.53;;;18.50;82.90;;;;;;5086664;28;20028;-76
2021/09/19 09:25:07;;;;;;;4.93;2.72;;;18.60;82.60;;;;;;5085734;28;20064;-77
2021/09/19 09:27:38;;;;;;;9.38;3.35;;;18.60;83.30;;;;;;5084110;28;20143;-77
2021/09/19 09:30:25;;;;;;;4.82;2.67;;;18.60;82.80;;;;;;5085518;28;20020;-77
2021/09/19 09:32:52;;;;;;;8.88;3.50;;;18.60;83.30;;;;;;5082019;28;20130;-76
2021/09/19 09:35:18;;;;;;;5.55;3.05;;;18.60;83.40;;;;;;5083526;28;20149;-76
2021/09/19 09:37:45;;;;;;;7.88;3.85;;;18.60;83.00;;;;;;5083325;28;20082;-75
2021/09/19 09:40:14;;;;;;;4.65;3.17;;;18.70;82.70;;;;;;5080249;28;20089;-75
2021/09/19 09:42:40;;;;;;;6.50;2.72;;;18.70;82.60;;;;;;5079638;28;20035;-75
2021/09/19 09:45:10;;;;;;;7.25;3.28;;;18.80;82.80;;;;;;5086670;28;20027;-75
2021/09/19 09:47:39;;;;;;;5.97;3.33;;;18.80;82.60;;;;;;5081725;28;20111;-75
2021/09/19 09:50:06;;;;;;;5.55;2.65;;;18.80;82.30;;;;;;5087863;28;20056;-76
2021/09/19 09:52:34;;;;;;;7.95;3.28;;;18.80;82.60;;;;;;5084740;28;20028;-70
2021/09/19 09:55:04;;;;;;;5.68;2.70;;;18.80;82.30;;;;;;5076519;28;20488;-70
2021/09/19 09:58:02;;;;;;;14.48;2.92;;;18.80;82.30;;;;;;5081604;28;20024;-69
2021/09/19 10:00:27;;;;;;;4.00;2.17;;;18.90;82.50;;;;;;5083185;28;20024;-68
2021/09/19 10:02:53;;;;;;;3.08;1.92;;;18.90;82.80;;;;;;5077795;28;20039;-68
2021/09/19 10:05:20;;;;;;;7.03;2.95;;;19.00;83.10;;;;;;5088687;28;20488;-68
2021/09/19 10:07:47;;;;;;;6.90;3.08;;;18.90;82.70;;;;;;5084612;28;20491;-67
2021/09/19 10:10:15;;;;;;;6.45;2.75;;;19.00;82.40;;;;;;5081489;28;20037;-69
2021/09/19 10:12:42;;;;;;;5.75;2.53;;;19.00;82.30;;;;;;5081677;28;20039;-68
2021/09/19 10:15:09;;;;;;;5.15;3.10;;;19.00;82.40;;;;;;5093976;28;20031;-68
2021/09/19 10:17:35;;;;;;;7.75;3.15;;;19.10;82.20;;;;;;5086576;28;20521;-68
2021/09/19 10:20:05;;;;;;;9.45;3.53;;;19.00;81.80;;;;;;5085257;28;20099;-68
2021/09/19 10:22:34;;;;;;;4.20;1.85;;;19.10;81.60;;;;;;5078057;28;20130;-68
2021/09/19 10:25:00;;;;;;;6.38;2.75;;;19.10;81.60;;;;;;5080659;28;20485;-70
2021/09/19 10:27:31;;;;;;;6.45;2.90;;;19.10;81.70;;;;;;5077410;28;20037;-70
2021/09/19 10:30:10;;;;;;;6.35;3.17;;;19.20;81.60;;;;;;5078407;28;20042;-70
2021/09/19 10:32:41;;;;;;;4.55;1.90;;;19.20;81.40;;;;;;5076352;28;20500;-74
2021/09/19 10:35:15;;;;;;;3.70;2.33;;;19.30;81.90;;;;;;5075830;28;20047;-73
2021/09/19 10:38:00;;;;;;;8.32;3.95;;;19.30;82.10;;;;;;5076250;28;20139;-69
2021/09/19 10:40:37;;;;;;;4.10;2.22;;;19.30;81.70;;;;;;5083201;28;20027;-74
2021/09/19 10:43:07;;;;;;;4.10;2.10;;;19.30;82.50;;;;;;5078066;28;20105;-75
2021/09/19 10:45:42;;;;;;;7.88;3.03;;;19.30;82.20;;;;;;5079302;28;20075;-75
2021/09/19 10:48:28;;;;;;;6.32;3.15;;;19.30;82.50;;;;;;5077179;28;20068;-69
2021/09/19 10:51:03;;;;;;;8.40;2.67;;;19.40;82.00;;;;;;5071052;28;20024;-71
2021/09/19 10:53:28;;;;;;;3.83;2.42;;;19.40;82.20;;;;;;5080019;28;20063;-70
2021/09/19 10:56:04;;;;;;;4.43;2.60;;;19.40;82.40;;;;;;5077551;28;20063;-70
2021/09/19 10:58:37;;;;;;;3.75;2.28;;;19.40;82.40;;;;;;5074991;28;20020;-76
2021/09/19 11:01:06;;;;;;;5.57;2.58;;;19.40;82.60;;;;;;5077238;28;20078;-76
2021/09/19 11:03:31;;;;;;;7.95;2.95;;;19.40;82.50;;;;;;5077505;28;20036;-78
2021/09/19 11:06:28;;;;;;;7.20;2.53;;;19.40;82.20;;;;;;5080951;28;20111;-76
2021/09/19 11:08:54;;;;;;;4.82;2.75;;;19.40;82.20;;;;;;5077809;28;20105;-74
2021/09/19 11:11:22;;;;;;;7.97;4.15;;;19.40;82.30;;;;;;5074749;28;20483;-74
2021/09/19 11:13:55;;;;;;;7.32;2.55;;;19.50;81.30;;;;;;5074050;28;20032;-74
2021/09/19 11:16:30;;;;;;;7.97;2.47;;;19.50;81.40;;;;;;5085109;28;20024;-78
2021/09/19 11:19:01;;;;;;;5.18;3.05;;;19.60;81.90;;;;;;5080251;28;20077;-77
2021/09/19 11:21:26;;;;;;;6.18;2.38;;;19.60;82.00;;;;;;5070624;28;20040;-71
2021/09/19 11:23:56;;;;;;;7.32;2.90;;;19.60;82.00;;;;;;5083295;28;20070;-71
2021/09/19 11:26:44;;;;;;;6.15;2.78;;;19.70;81.90;;;;;;5077704;28;20424;-70
2021/09/19 11:29:16;;;;;;;7.43;3.40;;;19.70;82.00;;;;;;5083925;28;20083;-71
2021/09/19 11:31:44;;;;;;;8.45;3.70;;;19.70;81.30;;;;;;5084419;28;20028;-74
2021/09/19 11:34:15;;;;;;;7.28;3.85;;;19.70;81.30;;;;;;5085207;28;20425;-75
2021/09/19 11:36:54;;;;;;;5.20;2.72;;;19.80;80.50;;;;;;5080800;28;20059;-81
2021/09/19 11:39:21;;;;;;;6.15;2.60;;;19.80;81.00;;;;;;5072911;28;20039;-73
2021/09/19 11:41:49;;;;;;;7.05;2.92;;;19.70;81.70;;;;;;5073729;28;20055;-70
2021/09/19 11:44:16;;;;;;;9.93;2.78;;;19.70;81.30;;;;;;5071997;28;20033;-70
2021/09/19 11:46:47;;;;;;;6.03;2.22;;;19.80;81.00;;;;;;5079526;28;20032;-69
2021/09/19 11:49:13;;;;;;;9.80;2.90;;;19.80;81.80;;;;;;5077388;28;20099;-70
2021/09/19 11:51:41;;;;;;;3.15;1.58;;;19.80;81.00;;;;;;5073958;28;20054;-69
2021/09/19 11:54:10;;;;;;;7.93;2.70;;;19.80;81.80;;;;;;5080399;28;20588;-70
2021/09/19 11:56:37;;;;;;;6.25;2.38;;;19.80;80.90;;;;;;5078174;28;20032;-69
2021/09/19 11:59:03;;;;;;;4.00;2.42;;;19.80;81.20;;;;;;5091306;28;20102;-69
2021/09/19 12:01:28;;;;;;;4.70;2.25;;;19.90;81.00;;;;;;5088755;28;20479;-69
2021/09/19 12:04:08;;;;;;;6.85;2.08;;;19.90;81.10;;;;;;5094501;28;20077;-69
2021/09/19 12:06:34;;;;;;;10.20;2.22;;;19.90;82.10;;;;;;5088364;28;20128;-70
2021/09/19 12:09:00;;;;;;;2.28;1.50;;;19.90;82.00;;;;;;5084415;28;20143;-69
2021/09/19 12:11:55;;;;;;;4.03;2.40;;;19.80;81.80;;;;;;5084070;28;20032;-70
2021/09/19 12:14:24;;;;;;;4.90;2.00;;;19.90;81.60;;;;;;5088752;28;20482;-69
2021/09/19 12:17:06;;;;;;;5.50;2.33;;;19.90;80.80;;;;;;5080871;28;20028;-70
2021/09/19 12:19:34;;;;;;;2.83;1.83;;;19.90;80.60;;;;;;5080095;28;20040;-70
2021/09/19 12:22:14;;;;;;;5.38;2.28;;;19.90;80.90;;;;;;5088071;28;20028;-69
2021/09/19 12:24:39;;;;;;;7.35;2.80;;;20.00;79.90;;;;;;5080946;28;20082;-69
2021/09/19 12:27:26;;;;;;;3.50;1.98;;;19.90;80.30;;;;;;5070908;28;20044;-69
2021/09/19 12:30:12;;;;;;;3.03;1.48;;;20.00;81.50;;;;;;5072713;28;20036;-69
2021/09/19 12:32:49;;;;;;;10.77;1.65;;;20.00;82.20;;;;;;5072413;28;20028;-69
2021/09/19 12:35:27;;;;;;;2.70;1.75;;;20.00;81.40;;;;;;5076823;28;20483;-69
2021/09/19 12:37:56;;;;;;;3.63;2.20;;;19.90;80.50;;;;;;5073878;28;20082;-69
2021/09/19 12:40:23;;;;;;;2.88;1.73;;;19.90;79.40;;;;;;5080513;28;20024;-69
2021/09/19 12:42:52;;;;;;;3.67;1.60;;;20.00;80.30;;;;;;5101514;27;20032;-70
2021/09/19 12:45:24;;;;;;;1.83;1.35;;;20.00;80.50;;;;;;5076476;28;20028;-73
2021/09/19 12:47:54;;;;;;;2.78;1.80;;;20.00;80.40;;;;;;5071108;28;20070;-69